الصفحة الرئيسية
METAR-TAF:

METAR-TAF

مطار :

مطار عمان المدني

عمان, الأردن

دائرة عرض: 31-59N, خط طول: 035-59E, ارتفاع: 767 متر

مراقبة الطقس الحالي

تاريخ ووقت الإصدار 39 دقيقة قبل الساعة 15:00UTC
ريح 5 عقدة من الشرق
درجة الحرارة 13°درجة مئوية
الرطوبة 44%
ضغط 1015 hPa
الرؤية: 5000 متر
العجاج

METAR: OJAM 231500Z 10005KT 5000 HZ NSC 13/01 Q1015 NOSIG

زمن: 17:39 (15:39 UTC)

توقعات

تاريخ ووقت الإصدار 4ساعات و 39 دقيقة قبل الساعة 11:00UTC
التوقعات صالحة من23 الساعة 12 UTC إلى 24 الساعة 18 UTC
ريح 6 عقدة من الشرق/الجنوب الشرقي
الرؤية: 5000 متر
العجاج
نظرية الاحتمالات 30%
من 24 الساعة 02 UTC إلى 24 الساعة 06 UTC
الرؤية: 3000 متر
دخان
نظرية الاحتمالات 40%
من 24 الساعة 12 UTC إلى 24 الساعة 18 UTC
ريح 16 عقدة من الجنوب/الجنوب الشرقي
الرؤية: 3000 متر
هبوب الغبار

TAF: OJAM 231100Z 2312/2418 12006KT 5000 HZ NSC PROB30 2402/2406 3000 FU PROB40 2412/2418 15016KT 3000 BLDU

أرصاد الطقس والتوقعات من أكثر من 4000 مطار (تقارير الطقس للمطار METAR والتنبؤ بالطقس بالمطارTAF).

المحطات المتاحة هي النقط الصفراء والحمراء على الخريطة.

حرك المؤشر فوق النقطة لمعرفة اسم المحطة.

ثم انقر لمعرفة أرصاد وتوقعات الطقس.

لتغيير الخارطة: اضغط على الأزرار الخضراء مع رمز الصليب الأسود للتكبير. على الزر الأخضر مع شرطة للتصغير، أو على الأسهم الخضراء للخرائط المجاورة.


METAR-TAF: